createdAt,value
2019-05-13T00:01:14.545Z,99.900002
2019-05-13T00:06:16.614Z,99.900002
2019-05-13T00:11:18.834Z,99.900002
2019-05-13T00:16:23.365Z,99.900002
2019-05-13T00:21:23.497Z,99.900002
2019-05-13T00:26:25.654Z,99.900002
2019-05-13T00:31:27.935Z,99.900002
2019-05-13T00:36:30.312Z,99.900002
2019-05-13T00:41:33.663Z,99.900002
2019-05-13T00:46:34.839Z,99.900002
2019-05-13T00:51:37.255Z,99.900002
2019-05-13T00:56:39.527Z,99.900002
2019-05-13T01:01:44.012Z,99.900002
2019-05-13T01:06:43.992Z,99.900002
2019-05-13T01:11:46.509Z,99.900002
2019-05-13T01:16:48.760Z,99.900002
2019-05-13T01:21:50.990Z,99.900002
2019-05-13T01:26:54.153Z,99.900002
2019-05-13T01:31:55.724Z,99.900002
2019-05-13T01:36:57.911Z,99.900002
2019-05-13T01:42:00.056Z,99.900002
2019-05-13T01:47:04.458Z,99.900002
2019-05-13T01:52:04.770Z,99.900002
2019-05-13T01:57:07.041Z,99.900002
2019-05-13T02:02:09.794Z,99.900002
2019-05-13T02:07:13.817Z,99.900002
2019-05-13T02:12:13.851Z,99.900002
2019-05-13T02:17:16.195Z,99.900002
2019-05-13T02:22:18.549Z,99.900002
2019-05-13T02:27:20.666Z,99.900002
2019-05-13T02:32:23.596Z,99.900002
2019-05-13T02:37:29.286Z,99.900002
2019-05-13T02:42:27.890Z,99.900002
2019-05-13T02:47:32.864Z,99.900002
2019-05-13T02:52:33.486Z,99.900002
2019-05-13T02:57:34.696Z,99.900002
2019-05-13T03:07:47.678Z,99.900002
2019-05-13T03:12:53.213Z,99.900002
2019-05-13T03:17:52.475Z,99.900002
2019-05-13T03:22:54.577Z,99.900002
2019-05-13T03:27:57.078Z,99.900002
2019-05-13T03:33:04.065Z,99.900002
2019-05-13T03:38:03.357Z,99.900002
2019-05-13T03:43:04.088Z,99.900002
2019-05-13T03:48:05.981Z,99.900002
2019-05-13T03:53:08.315Z,99.900002
2019-05-13T03:58:13.049Z,99.900002
2019-05-13T04:03:13.738Z,99.900002
2019-05-13T04:08:15.221Z,99.900002
2019-05-13T04:13:17.465Z,99.900002
2019-05-13T04:18:23.037Z,99.900002
2019-05-13T04:23:23.305Z,99.900002
2019-05-13T04:28:24.616Z,99.900002
2019-05-13T04:33:26.734Z,99.900002
2019-05-13T04:38:28.962Z,99.900002
2019-05-13T04:43:34.585Z,99.900002
2019-05-13T04:48:34.161Z,99.900002
2019-05-13T04:53:35.825Z,99.900002
2019-05-13T04:58:38.045Z,99.900002
2019-05-13T05:03:42.054Z,99.900002
2019-05-13T05:08:47.209Z,99.900002
2019-05-13T05:13:46.727Z,99.900002
2019-05-13T05:18:47.248Z,99.900002
2019-05-13T05:23:51.519Z,99.900002
2019-05-13T05:28:52.024Z,99.900002
2019-05-13T05:33:54.203Z,99.900002
2019-05-13T05:38:56.616Z,99.900002
2019-05-13T05:43:58.898Z,99.900002
2019-05-13T05:49:02.110Z,99.900002
2019-05-13T05:54:03.395Z,99.900002
2019-05-13T05:59:05.803Z,99.900002
2019-05-13T06:04:07.891Z,99.900002
2019-05-13T06:09:12.178Z,99.900002
2019-05-13T06:14:14.037Z,99.900002
2019-05-13T06:19:17.772Z,96.900002
2019-05-13T06:24:17.083Z,93.400002
2019-05-13T06:29:22.064Z,95
2019-05-13T06:34:21.705Z,90.800003
2019-05-13T06:39:24.076Z,96.199997
2019-05-13T06:44:26.255Z,88
2019-05-13T06:49:28.573Z,81.300003
2019-05-13T06:54:32.888Z,84.5
2019-05-13T06:59:33.108Z,79
2019-05-13T07:04:35.642Z,80
2019-05-13T07:09:37.730Z,82
2019-05-13T07:14:41.790Z,69.099998
2019-05-13T07:19:42.424Z,71.099998
2019-05-13T07:24:44.693Z,73.800003
2019-05-13T07:29:46.914Z,72.699997
2019-05-13T07:34:52.874Z,68.300003
2019-05-13T07:39:53.197Z,67.699997
2019-05-13T07:44:53.770Z,59.599998
2019-05-13T07:49:56.144Z,61.599998
2019-05-13T07:54:58.415Z,51.200001
2019-05-13T08:00:04.170Z,52.299999
2019-05-13T08:05:03.049Z,60.799999
2019-05-13T08:10:05.274Z,60.200001
2019-05-13T08:15:07.614Z,53.099998
2019-05-13T08:20:11.822Z,58
2019-05-13T08:25:12.687Z,63.799999
2019-05-13T08:30:17.905Z,52.799999
2019-05-13T08:35:16.753Z,53.200001
2019-05-13T08:40:20.436Z,51.299999
2019-05-13T08:45:22.374Z,50
2019-05-13T08:50:23.666Z,48.799999
2019-05-13T08:55:25.869Z,48.799999
2019-05-13T09:00:28.173Z,39
2019-05-13T09:05:31.869Z,44.5
2019-05-13T09:10:33.072Z,42.099998
2019-05-13T09:15:35.087Z,44.299999
2019-05-13T09:20:37.344Z,41.099998
2019-05-13T09:25:41.569Z,40.5
2019-05-13T09:30:42.482Z,39.599998
2019-05-13T09:35:44.358Z,41.299999
2019-05-13T09:40:46.570Z,35.599998
2019-05-13T09:45:48.827Z,33.200001
2019-05-13T09:50:51.806Z,34.700001
2019-05-13T09:55:53.416Z,33.200001
2019-05-13T10:00:55.712Z,32.400002
2019-05-13T10:05:57.999Z,32.900002
2019-05-13T10:11:01.609Z,25.4
2019-05-13T10:16:02.529Z,28.5
2019-05-13T10:21:04.849Z,32.799999
2019-05-13T10:26:07.229Z,29.1
2019-05-13T10:31:11.824Z,21.6
2019-05-13T10:36:12.226Z,22.299999
2019-05-13T10:41:14.023Z,27.6
2019-05-13T10:46:16.550Z,25.299999
2019-05-13T10:51:18.704Z,23.299999
2019-05-13T10:56:21.172Z,19.200001
2019-05-13T11:01:23.292Z,18.799999
2019-05-13T11:06:27.693Z,29.5
2019-05-13T11:11:27.980Z,30.4
2019-05-13T11:16:30.087Z,28.6
2019-05-13T11:21:32.574Z,29
2019-05-13T11:26:36.405Z,27.700001
2019-05-13T11:31:37.022Z,27.5
2019-05-13T11:36:43.016Z,29.4
2019-05-13T11:41:42.816Z,24.700001
2019-05-13T11:46:44.008Z,24.200001
2019-05-13T11:51:46.262Z,24.700001
2019-05-13T11:56:52.177Z,22.6
2019-05-13T12:02:04.616Z,21.4
2019-05-13T12:07:35.225Z,16.4
2019-05-13T12:11:55.801Z,25.1
2019-05-13T12:16:57.864Z,25.4
2019-05-13T12:22:02.596Z,25.4
2019-05-13T12:27:03.879Z,23.700001
2019-05-13T12:32:04.518Z,25.299999
2019-05-13T12:37:06.906Z,23.200001
2019-05-13T12:42:09.240Z,25.200001
2019-05-13T12:47:12.204Z,22.4
2019-05-13T12:52:14.025Z,22.299999
2019-05-13T12:57:16.449Z,22.9
2019-05-13T13:02:18.286Z,18.799999
2019-05-13T13:08:37.953Z,20.1
2019-05-13T13:12:33.455Z,16.9
2019-05-13T13:17:25.330Z,18.4
2019-05-13T13:22:27.572Z,18.700001
2019-05-13T13:28:10.634Z,17.299999
2019-05-13T13:32:33.114Z,18.4
2019-05-13T13:37:35.201Z,19.5
2019-05-13T13:42:36.795Z,20.200001
2019-05-13T13:47:39.074Z,19.700001
2019-05-13T13:52:45.741Z,19.4
2019-05-13T13:57:44.976Z,21.1
2019-05-13T14:02:46.153Z,23.1
2019-05-13T14:06:55.940Z,17.299999
2019-05-13T14:07:48.216Z,18.799999
2019-05-13T14:12:52.505Z,17.299999
2019-05-13T14:17:53.126Z,21.4
2019-05-13T14:22:58.059Z,23
2019-05-13T14:27:57.504Z,21.4
2019-05-13T14:33:02.187Z,19.700001
2019-05-13T14:38:02.582Z,21.700001
2019-05-13T14:43:04.441Z,21
2019-05-13T14:48:06.556Z,21.5
2019-05-13T14:53:08.911Z,18.299999
2019-05-13T14:58:11.087Z,18.799999
2019-05-13T15:03:13.620Z,15
2019-05-13T15:08:15.640Z,18.1
2019-05-13T15:13:18.174Z,19.799999
2019-05-13T15:18:22.229Z,22.6
2019-05-13T15:23:22.687Z,18.6
2019-05-13T15:28:25.165Z,18.1
2019-05-13T15:33:27.158Z,18.6
2019-05-13T15:38:31.824Z,19.9
2019-05-13T15:43:32.084Z,22.4
2019-05-13T15:48:34.197Z,22
2019-05-13T15:53:36.258Z,20
2019-05-13T15:58:40.480Z,20.5
2019-05-13T16:03:41.561Z,20.700001
2019-05-13T16:08:43.492Z,22.5
2019-05-13T16:13:45.572Z,22
2019-05-13T16:18:47.868Z,24.4
2019-05-13T16:23:51.953Z,21.799999
2019-05-13T16:28:52.834Z,21.200001
2019-05-13T16:33:55.033Z,23.200001
2019-05-13T16:38:57.676Z,24.9
2019-05-13T16:43:59.632Z,22.799999
2019-05-13T16:49:02.105Z,24.4
2019-05-13T16:54:03.855Z,24.4
2019-05-13T16:59:06.214Z,25.6
2019-05-13T17:04:08.529Z,24.700001
2019-05-13T17:09:11.500Z,26.200001
2019-05-13T17:14:13.188Z,25.799999
2019-05-13T17:19:15.370Z,26.799999
2019-05-13T17:24:17.713Z,28.799999
2019-05-13T17:29:21.127Z,27.6
2019-05-13T17:34:22.356Z,31.9
2019-05-13T17:39:24.769Z,33.299999
2019-05-13T17:44:26.745Z,32.900002
2019-05-13T17:54:31.971Z,34.700001
2019-05-13T17:59:33.661Z,37.599998
2019-05-13T18:04:35.983Z,34.5
2019-05-13T18:09:38.974Z,34
2019-05-13T18:14:41.168Z,33.400002
2019-05-13T18:19:43.225Z,34.400002
2019-05-13T18:24:45.311Z,34.299999
2019-05-13T18:29:47.745Z,35.400002
2019-05-13T18:34:49.811Z,34.200001
2019-05-13T18:39:52.234Z,32.900002
2019-05-13T18:44:54.322Z,34.900002
2019-05-13T18:49:56.933Z,35.799999
2019-05-13T18:54:58.970Z,33.799999
2019-05-13T19:00:03.509Z,36.599998
2019-05-13T19:05:03.465Z,36.099998
2019-05-13T19:10:05.912Z,38.799999
2019-05-13T19:15:08.127Z,36.200001
2019-05-13T19:20:11.685Z,37.200001
2019-05-13T19:25:12.701Z,38.400002
2019-05-13T19:30:14.959Z,36.700001
2019-05-13T19:35:17.276Z,37
2019-05-13T19:40:21.892Z,38.5
2019-05-13T19:45:21.971Z,38.799999
2019-05-13T19:50:24.159Z,40.900002
2019-05-13T19:55:26.413Z,42.5
2019-05-13T20:00:28.720Z,44.299999
2019-05-13T20:05:31.765Z,46.5
2019-05-13T20:10:33.268Z,49.599998
2019-05-13T20:15:35.645Z,50.799999
2019-05-13T20:20:37.968Z,53
2019-05-13T20:25:41.765Z,53.799999
2019-05-13T20:30:45.428Z,57.099998
2019-05-13T20:35:45.094Z,57.5
2019-05-13T20:40:47.009Z,60.099998
2019-05-13T20:45:51.671Z,62.099998
2019-05-13T20:50:51.986Z,64.699997
2019-05-13T20:55:54.025Z,65.300003
2019-05-13T21:00:56.337Z,67.300003
2019-05-13T21:05:58.511Z,67.800003
2019-05-13T21:11:02.233Z,69.099998
2019-05-13T21:16:03.117Z,69.099998
2019-05-13T21:21:05.372Z,68.900002
2019-05-13T21:26:07.814Z,70.199997
2019-05-13T21:31:11.363Z,71.099998
2019-05-13T21:36:12.405Z,70.400002
2019-05-13T21:41:14.665Z,71.599998
2019-05-13T21:46:16.879Z,71.400002
2019-05-13T21:51:19.182Z,72.599998
2019-05-13T21:56:23.241Z,74.400002
2019-05-13T22:01:23.747Z,74.800003
2019-05-13T22:06:26.059Z,75.300003
2019-05-13T22:11:28.421Z,77.900002
2019-05-13T22:16:31.914Z,76.599998
2019-05-13T22:21:32.959Z,76.300003
2019-05-13T22:26:35.193Z,76.900002
2019-05-13T22:31:37.548Z,76.300003
2019-05-13T22:36:39.872Z,75.5
2019-05-13T22:41:42.321Z,76.199997
2019-05-13T22:46:44.414Z,75.599998
2019-05-13T22:51:46.659Z,75.699997
2019-05-13T22:56:48.952Z,75.300003
2019-05-13T23:01:52.376Z,76.199997
2019-05-13T23:06:53.610Z,75.400002
2019-05-13T23:11:55.859Z,77
2019-05-13T23:16:58.198Z,78.900002
2019-05-13T23:22:01.550Z,76.5
2019-05-13T23:27:02.939Z,79.400002
2019-05-13T23:32:05.422Z,80.099998
2019-05-13T23:37:07.391Z,80.099998
2019-05-13T23:42:11.889Z,79.900002
2019-05-13T23:47:11.993Z,82.400002
2019-05-13T23:52:14.241Z,84.199997
2019-05-13T23:57:16.834Z,83.5
